Terminal Aerodrome Forecast
Issued by NWS Jacksonville, FL

Home | Current Version | Previous Version | Text Only | Print | Product List | Glossary On
Versions: 1 2 3 4 5 6 7 8 9 10 11 12 13 14 15 16 17 18 19 20 21 22 23 24 25 26 27 28
000
FTUS42 KJAX 231847 AAD
TAFSSI
TAF AMD
KSSI 231847Z 2319/2418 18010KT P6SM VCSH SCT035 BKN100
      TEMPO 2319/2322 VRB12G22KT 4SM TSRA BKN025CB
     FM240100 16010G17KT P6SM VCSH OVC020
     FM240600 20007KT P6SM SCT007 BKN015
     FM241100 25006KT P6SM SCT035=

USA.gov is the U.S. government's official web portal to all federal, state and local government web resources and services.